sensor_id;sensor_type;location;lat;lon;timestamp;pressure;altitude;pressure_sealevel;temperature;humidity
24788;BME280;12883;52.662;5.196;2023-04-20T00:00:00;102584.69;;;8.24;100.00
24788;BME280;12883;52.662;5.196;2023-04-20T00:02:25;102521.22;;;8.15;100.00
24788;BME280;12883;52.662;5.196;2023-04-20T00:04:51;102591.19;;;8.58;100.00
24788;BME280;12883;52.662;5.196;2023-04-20T00:07:17;102398.63;;;7.22;100.00
24788;BME280;12883;52.662;5.196;2023-04-20T00:09:42;102553.19;;;8.12;100.00
24788;BME280;12883;52.662;5.196;2023-04-20T00:12:07;102610.97;;;8.54;100.00
24788;BME280;12883;52.662;5.196;2023-04-20T00:14:33;102468.66;;;7.83;100.00
24788;BME280;12883;52.662;5.196;2023-04-20T00:16:58;102575.22;;;8.31;100.00
24788;BME280;12883;52.662;5.196;2023-04-20T00:19:24;102580.78;;;8.28;100.00
24788;BME280;12883;52.662;5.196;2023-04-20T00:21:51;102495.34;;;7.90;100.00
24788;BME280;12883;52.662;5.196;2023-04-20T00:24:17;102499.28;;;7.86;100.00
24788;BME280;12883;52.662;5.196;2023-04-20T00:26:42;102454.63;;;7.64;100.00
24788;BME280;12883;52.662;5.196;2023-04-20T00:29:07;102476.47;;;7.56;100.00
24788;BME280;12883;52.662;5.196;2023-04-20T00:31:33;102539.19;;;7.92;100.00
24788;BME280;12883;52.662;5.196;2023-04-20T00:33:58;102396.50;;;6.97;100.00
24788;BME280;12883;52.662;5.196;2023-04-20T00:36:23;102386.84;;;7.26;100.00
24788;BME280;12883;52.662;5.196;2023-04-20T00:38:49;102559.78;;;8.27;100.00
24788;BME280;12883;52.662;5.196;2023-04-20T00:41:14;102504.56;;;7.76;100.00
24788;BME280;12883;52.662;5.196;2023-04-20T00:43:52;102554.06;;;8.12;100.00
24788;BME280;12883;52.662;5.196;2023-04-20T00:46:21;102541.81;;;7.73;100.00
24788;BME280;12883;52.662;5.196;2023-04-20T00:48:47;102311.09;;;6.60;100.00
24788;BME280;12883;52.662;5.196;2023-04-20T00:51:14;102432.84;;;7.33;100.00
24788;BME280;12883;52.662;5.196;2023-04-20T00:53:39;102527.09;;;7.71;100.00
24788;BME280;12883;52.662;5.196;2023-04-20T00:56:05;102424.50;;;7.47;100.00
24788;BME280;12883;52.662;5.196;2023-04-20T00:58:32;102336.09;;;6.75;100.00
24788;BME280;12883;52.662;5.196;2023-04-20T01:00:57;102500.50;;;7.72;100.00
24788;BME280;12883;52.662;5.196;2023-04-20T01:03:23;102440.75;;;7.33;100.00
24788;BME280;12883;52.662;5.196;2023-04-20T01:05:48;102422.97;;;7.35;100.00
24788;BME280;12883;52.662;5.196;2023-04-20T01:08:14;102311.94;;;6.61;100.00
24788;BME280;12883;52.662;5.196;2023-04-20T01:10:39;102259.75;;;6.45;100.00
24788;BME280;12883;52.662;5.196;2023-04-20T01:13:04;102307.22;;;6.74;100.00
24788;BME280;12883;52.662;5.196;2023-04-20T01:15:30;102288.47;;;6.67;100.00
24788;BME280;12883;52.662;5.196;2023-04-20T01:17:55;102484.91;;;8.07;100.00
24788;BME280;12883;52.662;5.196;2023-04-20T01:20:22;102495.38;;;7.71;100.00
24788;BME280;12883;52.662;5.196;2023-04-20T01:22:50;102496.22;;;7.71;100.00
24788;BME280;12883;52.662;5.196;2023-04-20T01:25:16;102395.69;;;7.44;100.00
24788;BME280;12883;52.662;5.196;2023-04-20T01:27:42;102427.81;;;7.68;100.00
24788;BME280;12883;52.662;5.196;2023-04-20T01:30:08;102469.47;;;8.22;100.00
24788;BME280;12883;52.662;5.196;2023-04-20T01:32:34;102334.16;;;7.34;100.00
24788;BME280;12883;52.662;5.196;2023-04-20T01:35:00;102471.75;;;7.88;100.00
24788;BME280;12883;52.662;5.196;2023-04-20T01:37:26;102169.97;;;6.37;100.00
24788;BME280;12883;52.662;5.196;2023-04-20T01:39:51;102384.56;;;7.69;100.00
24788;BME280;12883;52.662;5.196;2023-04-20T01:42:16;102473.00;;;8.40;100.00
24788;BME280;12883;52.662;5.196;2023-04-20T01:44:42;102209.03;;;6.99;100.00
24788;BME280;12883;52.662;5.196;2023-04-20T01:47:07;102357.22;;;7.97;100.00
24788;BME280;12883;52.662;5.196;2023-04-20T01:49:32;102426.56;;;8.37;100.00
24788;BME280;12883;52.662;5.196;2023-04-20T01:51:58;102413.13;;;8.48;100.00
24788;BME280;12883;52.662;5.196;2023-04-20T01:54:23;102441.34;;;8.84;100.00
24788;BME280;12883;52.662;5.196;2023-04-20T01:56:49;102173.91;;;7.35;100.00
24788;BME280;12883;52.662;5.196;2023-04-20T01:59:14;102434.16;;;8.77;100.00
24788;BME280;12883;52.662;5.196;2023-04-20T02:01:39;102384.44;;;8.53;100.00
24788;BME280;12883;52.662;5.196;2023-04-20T02:04:05;102310.19;;;8.37;100.00
24788;BME280;12883;52.662;5.196;2023-04-20T02:06:30;102365.28;;;8.69;100.00
24788;BME280;12883;52.662;5.196;2023-04-20T02:08:57;102238.56;;;7.94;100.00
24788;BME280;12883;52.662;5.196;2023-04-20T02:11:22;102294.38;;;8.28;100.00
24788;BME280;12883;52.662;5.196;2023-04-20T02:13:47;102299.59;;;8.37;100.00
24788;BME280;12883;52.662;5.196;2023-04-20T02:16:13;102363.69;;;8.76;100.00
24788;BME280;12883;52.662;5.196;2023-04-20T02:18:38;102318.88;;;8.20;100.00
24788;BME280;12883;52.662;5.196;2023-04-20T02:21:04;102306.31;;;8.49;100.00
24788;BME280;12883;52.662;5.196;2023-04-20T02:23:30;102286.06;;;8.13;100.00
24788;BME280;12883;52.662;5.196;2023-04-20T02:25:55;102426.81;;;9.15;100.00
24788;BME280;12883;52.662;5.196;2023-04-20T02:28:20;102283.31;;;8.59;100.00
24788;BME280;12883;52.662;5.196;2023-04-20T02:30:46;102340.22;;;8.81;100.00
24788;BME280;12883;52.662;5.196;2023-04-20T02:33:11;102369.66;;;8.95;100.00
24788;BME280;12883;52.662;5.196;2023-04-20T02:35:36;102287.75;;;8.59;100.00
24788;BME280;12883;52.662;5.196;2023-04-20T02:38:02;102231.72;;;8.28;100.00
24788;BME280;12883;52.662;5.196;2023-04-20T02:40:27;102040.81;;;7.10;100.00
24788;BME280;12883;52.662;5.196;2023-04-20T02:42:52;102356.50;;;9.03;100.00
24788;BME280;12883;52.662;5.196;2023-04-20T02:45:18;102335.72;;;9.08;100.00
24788;BME280;12883;52.662;5.196;2023-04-20T02:47:43;102254.19;;;8.77;100.00
24788;BME280;12883;52.662;5.196;2023-04-20T02:50:09;102268.09;;;8.79;100.00
24788;BME280;12883;52.662;5.196;2023-04-20T02:52:35;102266.75;;;8.92;100.00
24788;BME280;12883;52.662;5.196;2023-04-20T02:55:00;102294.59;;;9.22;100.00
24788;BME280;12883;52.662;5.196;2023-04-20T02:57:26;102233.94;;;8.85;100.00
24788;BME280;12883;52.662;5.196;2023-04-20T02:59:51;102285.59;;;9.15;100.00
24788;BME280;12883;52.662;5.196;2023-04-20T03:02:16;102040.16;;;7.70;100.00
24788;BME280;12883;52.662;5.196;2023-04-20T03:04:42;102333.03;;;9.43;100.00
24788;BME280;12883;52.662;5.196;2023-04-20T03:07:07;102249.09;;;9.01;100.00
24788;BME280;12883;52.662;5.196;2023-04-20T03:09:34;102257.56;;;9.04;100.00
24788;BME280;12883;52.662;5.196;2023-04-20T03:12:00;102242.81;;;9.02;100.00
24788;BME280;12883;52.662;5.196;2023-04-20T03:14:26;102349.03;;;9.59;100.00
24788;BME280;12883;52.662;5.196;2023-04-20T03:16:52;102077.75;;;8.17;100.00
24788;BME280;12883;52.662;5.196;2023-04-20T03:19:17;102188.94;;;8.85;100.00
24788;BME280;12883;52.662;5.196;2023-04-20T03:21:43;102219.44;;;8.97;100.00
24788;BME280;12883;52.662;5.196;2023-04-20T03:24:09;102246.06;;;9.13;100.00
24788;BME280;12883;52.662;5.196;2023-04-20T03:26:34;102335.09;;;9.57;100.00
24788;BME280;12883;52.662;5.196;2023-04-20T03:29:00;102268.44;;;9.44;100.00
24788;BME280;12883;52.662;5.196;2023-04-20T03:31:26;102327.16;;;9.57;100.00
24788;BME280;12883;52.662;5.196;2023-04-20T03:33:51;102200.91;;;8.72;100.00
24788;BME280;12883;52.662;5.196;2023-04-20T03:36:17;102292.75;;;9.65;100.00
24788;BME280;12883;52.662;5.196;2023-04-20T03:38:42;102256.16;;;9.35;100.00
24788;BME280;12883;52.662;5.196;2023-04-20T03:41:07;102269.75;;;9.40;100.00
24788;BME280;12883;52.662;5.196;2023-04-20T03:43:33;102104.63;;;8.47;100.00
24788;BME280;12883;52.662;5.196;2023-04-20T03:45:59;102213.41;;;9.05;100.00
24788;BME280;12883;52.662;5.196;2023-04-20T03:48:24;102226.59;;;9.22;100.00
24788;BME280;12883;52.662;5.196;2023-04-20T03:50:49;102215.94;;;9.14;100.00
24788;BME280;12883;52.662;5.196;2023-04-20T03:53:15;101955.84;;;7.59;100.00
24788;BME280;12883;52.662;5.196;2023-04-20T03:55:41;102194.50;;;9.00;100.00
24788;BME280;12883;52.662;5.196;2023-04-20T03:58:06;102286.13;;;9.61;100.00
24788;BME280;12883;52.662;5.196;2023-04-20T04:00:31;102146.06;;;8.82;100.00
24788;BME280;12883;52.662;5.196;2023-04-20T04:02:57;102194.16;;;9.20;100.00
24788;BME280;12883;52.662;5.196;2023-04-20T04:05:23;102171.50;;;9.00;100.00
24788;BME280;12883;52.662;5.196;2023-04-20T04:07:49;102179.13;;;9.03;100.00
24788;BME280;12883;52.662;5.196;2023-04-20T04:10:14;102276.47;;;9.60;100.00
24788;BME280;12883;52.662;5.196;2023-04-20T04:12:41;102300.72;;;9.65;100.00
24788;BME280;12883;52.662;5.196;2023-04-20T04:15:07;102209.72;;;9.23;100.00
24788;BME280;12883;52.662;5.196;2023-04-20T04:17:33;101942.66;;;7.59;100.00
24788;BME280;12883;52.662;5.196;2023-04-20T04:19:58;102211.78;;;9.37;100.00
24788;BME280;12883;52.662;5.196;2023-04-20T04:22:23;102217.44;;;9.42;100.00
24788;BME280;12883;52.662;5.196;2023-04-20T04:24:49;102250.06;;;9.68;100.00
24788;BME280;12883;52.662;5.196;2023-04-20T04:27:14;102252.31;;;9.55;100.00
24788;BME280;12883;52.662;5.196;2023-04-20T04:29:40;102130.34;;;8.80;100.00
24788;BME280;12883;52.662;5.196;2023-04-20T04:32:06;102193.31;;;9.20;100.00
24788;BME280;12883;52.662;5.196;2023-04-20T04:34:32;102228.34;;;9.39;100.00
24788;BME280;12883;52.662;5.196;2023-04-20T04:36:59;102245.63;;;9.51;100.00
24788;BME280;12883;52.662;5.196;2023-04-20T04:39:28;102217.41;;;9.34;100.00
24788;BME280;12883;52.662;5.196;2023-04-20T04:41:57;102116.50;;;8.86;100.00
24788;BME280;12883;52.662;5.196;2023-04-20T04:44:22;102199.69;;;9.35;100.00
24788;BME280;12883;52.662;5.196;2023-04-20T04:46:50;102195.47;;;9.24;100.00
24788;BME280;12883;52.662;5.196;2023-04-20T04:49:15;102200.34;;;9.37;100.00
24788;BME280;12883;52.662;5.196;2023-04-20T04:51:40;102210.63;;;9.40;100.00
24788;BME280;12883;52.662;5.196;2023-04-20T04:54:06;102185.50;;;9.44;100.00
24788;BME280;12883;52.662;5.196;2023-04-20T04:56:31;102046.03;;;8.60;100.00
24788;BME280;12883;52.662;5.196;2023-04-20T04:58:56;102201.34;;;9.10;100.00
24788;BME280;12883;52.662;5.196;2023-04-20T05:01:22;102158.31;;;9.08;100.00
24788;BME280;12883;52.662;5.196;2023-04-20T05:03:47;102241.28;;;9.17;100.00
24788;BME280;12883;52.662;5.196;2023-04-20T05:06:12;102197.56;;;9.46;100.00
24788;BME280;12883;52.662;5.196;2023-04-20T05:08:38;102122.53;;;9.04;100.00
24788;BME280;12883;52.662;5.196;2023-04-20T05:11:03;102155.03;;;9.14;100.00
24788;BME280;12883;52.662;5.196;2023-04-20T05:13:28;102183.00;;;9.42;100.00
24788;BME280;12883;52.662;5.196;2023-04-20T05:15:54;102233.19;;;9.77;100.00
24788;BME280;12883;52.662;5.196;2023-04-20T05:18:19;102134.06;;;9.21;100.00
24788;BME280;12883;52.662;5.196;2023-04-20T05:20:45;102246.53;;;9.59;100.00
24788;BME280;12883;52.662;5.196;2023-04-20T05:23:10;102220.63;;;9.87;100.00
24788;BME280;12883;52.662;5.196;2023-04-20T05:25:36;102310.03;;;9.69;100.00
24788;BME280;12883;52.662;5.196;2023-04-20T05:28:02;102101.56;;;9.11;100.00
24788;BME280;12883;52.662;5.196;2023-04-20T05:30:27;102122.16;;;9.25;100.00
24788;BME280;12883;52.662;5.196;2023-04-20T05:32:52;102217.50;;;9.91;100.00
24788;BME280;12883;52.662;5.196;2023-04-20T05:35:18;102216.63;;;9.75;100.00
24788;BME280;12883;52.662;5.196;2023-04-20T05:37:44;102232.88;;;9.88;100.00
24788;BME280;12883;52.662;5.196;2023-04-20T05:40:11;102178.09;;;9.55;100.00
24788;BME280;12883;52.662;5.196;2023-04-20T05:42:37;102211.84;;;9.78;100.00
24788;BME280;12883;52.662;5.196;2023-04-20T05:45:02;102174.84;;;9.69;100.00
24788;BME280;12883;52.662;5.196;2023-04-20T05:47:28;102233.09;;;9.94;100.00
24788;BME280;12883;52.662;5.196;2023-04-20T05:49:53;102259.47;;;9.96;100.00
24788;BME280;12883;52.662;5.196;2023-04-20T05:52:19;101973.66;;;8.43;100.00
24788;BME280;12883;52.662;5.196;2023-04-20T05:54:44;102173.84;;;9.62;100.00
24788;BME280;12883;52.662;5.196;2023-04-20T05:57:09;102199.69;;;9.68;100.00
24788;BME280;12883;52.662;5.196;2023-04-20T05:59:35;102175.28;;;9.56;100.00
24788;BME280;12883;52.662;5.196;2023-04-20T06:02:01;102240.31;;;9.84;100.00
24788;BME280;12883;52.662;5.196;2023-04-20T06:04:26;102186.38;;;9.60;100.00
24788;BME280;12883;52.662;5.196;2023-04-20T06:06:52;102086.22;;;9.22;100.00
24788;BME280;12883;52.662;5.196;2023-04-20T06:09:17;102225.38;;;10.09;100.00
24788;BME280;12883;52.662;5.196;2023-04-20T06:11:43;102081.63;;;9.32;100.00
24788;BME280;12883;52.662;5.196;2023-04-20T06:14:08;102151.31;;;9.66;100.00
24788;BME280;12883;52.662;5.196;2023-04-20T06:16:36;102177.81;;;9.74;100.00
24788;BME280;12883;52.662;5.196;2023-04-20T06:19:01;102197.19;;;10.08;100.00
24788;BME280;12883;52.662;5.196;2023-04-20T06:21:27;102215.16;;;9.88;100.00
24788;BME280;12883;52.662;5.196;2023-04-20T06:23:52;102154.16;;;9.72;100.00
24788;BME280;12883;52.662;5.196;2023-04-20T06:26:18;102130.53;;;9.46;100.00
24788;BME280;12883;52.662;5.196;2023-04-20T06:28:43;102327.06;;;10.00;100.00
24788;BME280;12883;52.662;5.196;2023-04-20T06:31:09;102264.63;;;9.72;100.00
24788;BME280;12883;52.662;5.196;2023-04-20T06:33:35;102197.25;;;9.82;100.00
24788;BME280;12883;52.662;5.196;2023-04-20T06:36:01;102166.47;;;9.48;100.00
24788;BME280;12883;52.662;5.196;2023-04-20T06:38:26;102127.25;;;9.18;100.00
24788;BME280;12883;52.662;5.196;2023-04-20T06:40:52;101951.78;;;8.08;100.00
24788;BME280;12883;52.662;5.196;2023-04-20T06:43:17;102172.13;;;9.53;100.00
24788;BME280;12883;52.662;5.196;2023-04-20T06:45:42;102175.09;;;9.50;100.00
24788;BME280;12883;52.662;5.196;2023-04-20T06:48:08;102166.81;;;9.53;100.00
24788;BME280;12883;52.662;5.196;2023-04-20T06:50:33;102166.16;;;9.51;100.00
24788;BME280;12883;52.662;5.196;2023-04-20T06:53:01;102187.19;;;9.52;100.00
24788;BME280;12883;52.662;5.196;2023-04-20T06:55:27;102175.59;;;9.53;100.00
24788;BME280;12883;52.662;5.196;2023-04-20T06:57:52;102213.69;;;9.52;100.00
24788;BME280;12883;52.662;5.196;2023-04-20T07:00:18;102203.75;;;9.54;100.00
24788;BME280;12883;52.662;5.196;2023-04-20T07:02:48;102236.03;;;9.83;100.00
24788;BME280;12883;52.662;5.196;2023-04-20T07:05:14;102222.28;;;9.88;100.00
24788;BME280;12883;52.662;5.196;2023-04-20T07:07:41;102230.69;;;9.75;100.00
24788;BME280;12883;52.662;5.196;2023-04-20T07:10:07;102070.38;;;8.89;100.00
24788;BME280;12883;52.662;5.196;2023-04-20T07:12:34;102006.56;;;8.66;100.00
24788;BME280;12883;52.662;5.196;2023-04-20T07:15:04;102215.81;;;9.82;100.00
24788;BME280;12883;52.662;5.196;2023-04-20T07:17:30;102158.44;;;9.65;100.00
24788;BME280;12883;52.662;5.196;2023-04-20T07:19:56;102203.41;;;9.83;100.00
24788;BME280;12883;52.662;5.196;2023-04-20T07:22:23;102255.53;;;10.08;100.00
24788;BME280;12883;52.662;5.196;2023-04-20T07:24:49;102098.25;;;9.50;100.00
24788;BME280;12883;52.662;5.196;2023-04-20T07:27:14;102016.25;;;8.91;100.00
24788;BME280;12883;52.662;5.196;2023-04-20T07:29:40;102200.63;;;10.00;100.00
24788;BME280;12883;52.662;5.196;2023-04-20T07:32:05;102125.25;;;9.53;100.00
24788;BME280;12883;52.662;5.196;2023-04-20T07:34:30;102102.38;;;9.45;100.00
24788;BME280;12883;52.662;5.196;2023-04-20T07:36:56;102198.94;;;9.91;100.00
24788;BME280;12883;52.662;5.196;2023-04-20T07:39:21;102014.78;;;8.89;100.00
24788;BME280;12883;52.662;5.196;2023-04-20T07:41:49;102187.41;;;9.67;100.00
24788;BME280;12883;52.662;5.196;2023-04-20T07:44:14;102210.50;;;9.82;100.00
24788;BME280;12883;52.662;5.196;2023-04-20T07:46:39;102180.94;;;9.61;100.00
24788;BME280;12883;52.662;5.196;2023-04-20T07:49:05;102194.81;;;9.55;100.00
24788;BME280;12883;52.662;5.196;2023-04-20T07:51:31;102113.00;;;9.19;100.00
24788;BME280;12883;52.662;5.196;2023-04-20T07:53:58;102129.50;;;9.05;100.00
24788;BME280;12883;52.662;5.196;2023-04-20T07:56:24;102141.47;;;9.17;100.00
24788;BME280;12883;52.662;5.196;2023-04-20T07:58:50;102068.22;;;8.41;100.00
24788;BME280;12883;52.662;5.196;2023-04-20T08:01:15;102211.88;;;9.28;100.00
24788;BME280;12883;52.662;5.196;2023-04-20T08:03:41;102198.69;;;9.10;100.00
24788;BME280;12883;52.662;5.196;2023-04-20T08:06:06;102170.56;;;8.84;100.00
24788;BME280;12883;52.662;5.196;2023-04-20T08:08:31;102159.44;;;8.80;100.00
24788;BME280;12883;52.662;5.196;2023-04-20T08:10:57;102152.75;;;8.68;100.00
24788;BME280;12883;52.662;5.196;2023-04-20T08:13:23;102105.13;;;8.25;100.00
24788;BME280;12883;52.662;5.196;2023-04-20T08:15:48;102100.72;;;8.16;100.00
24788;BME280;12883;52.662;5.196;2023-04-20T08:18:13;102159.78;;;8.42;100.00
24788;BME280;12883;52.662;5.196;2023-04-20T08:20:39;102123.13;;;7.95;100.00
24788;BME280;12883;52.662;5.196;2023-04-20T08:23:04;102111.50;;;8.05;100.00
24788;BME280;12883;52.662;5.196;2023-04-20T08:25:30;102164.34;;;8.32;100.00
24788;BME280;12883;52.662;5.196;2023-04-20T08:27:56;102140.22;;;8.35;100.00
24788;BME280;12883;52.662;5.196;2023-04-20T08:30:22;102081.84;;;7.94;100.00
24788;BME280;12883;52.662;5.196;2023-04-20T08:32:47;102168.50;;;8.35;100.00
24788;BME280;12883;52.662;5.196;2023-04-20T08:35:12;102083.34;;;7.96;100.00
24788;BME280;12883;52.662;5.196;2023-04-20T08:37:38;102139.78;;;8.22;100.00
24788;BME280;12883;52.662;5.196;2023-04-20T08:40:03;102074.97;;;8.01;100.00
24788;BME280;12883;52.662;5.196;2023-04-20T08:42:30;102175.38;;;8.63;100.00
24788;BME280;12883;52.662;5.196;2023-04-20T08:44:57;102119.59;;;8.21;100.00
24788;BME280;12883;52.662;5.196;2023-04-20T08:47:22;102168.97;;;8.30;100.00
24788;BME280;12883;52.662;5.196;2023-04-20T08:49:52;102164.47;;;8.48;100.00
24788;BME280;12883;52.662;5.196;2023-04-20T08:52:18;102168.41;;;8.62;100.00
24788;BME280;12883;52.662;5.196;2023-04-20T08:54:44;102063.03;;;7.97;100.00
24788;BME280;12883;52.662;5.196;2023-04-20T08:57:09;102162.81;;;8.47;100.00
24788;BME280;12883;52.662;5.196;2023-04-20T08:59:36;102090.28;;;7.97;100.00
24788;BME280;12883;52.662;5.196;2023-04-20T09:02:12;102103.81;;;8.29;100.00
24788;BME280;12883;52.662;5.196;2023-04-20T09:04:38;102143.84;;;8.52;100.00
24788;BME280;12883;52.662;5.196;2023-04-20T09:07:04;102145.81;;;8.50;100.00
24788;BME280;12883;52.662;5.196;2023-04-20T09:09:30;102022.34;;;7.72;100.00
24788;BME280;12883;52.662;5.196;2023-04-20T09:12:00;102043.84;;;8.12;100.00
24788;BME280;12883;52.662;5.196;2023-04-20T09:14:27;102074.72;;;8.29;100.00
24788;BME280;12883;52.662;5.196;2023-04-20T09:16:54;102156.53;;;8.91;100.00
24788;BME280;12883;52.662;5.196;2023-04-20T09:19:30;102127.59;;;8.64;100.00
24788;BME280;12883;52.662;5.196;2023-04-20T09:21:59;102140.25;;;9.04;100.00
24788;BME280;12883;52.662;5.196;2023-04-20T09:24:31;102145.75;;;9.10;100.00
24788;BME280;12883;52.662;5.196;2023-04-20T09:26:56;102116.91;;;8.99;100.00
24788;BME280;12883;52.662;5.196;2023-04-20T09:29:23;101969.63;;;8.23;100.00
24788;BME280;12883;52.662;5.196;2023-04-20T09:31:50;102187.94;;;9.37;100.00
24788;BME280;12883;52.662;5.196;2023-04-20T09:34:15;102053.50;;;8.90;100.00
24788;BME280;12883;52.662;5.196;2023-04-20T09:36:43;101941.41;;;8.14;100.00
24788;BME280;12883;52.662;5.196;2023-04-20T09:39:17;101780.09;;;6.61;100.00
24788;BME280;12883;52.662;5.196;2023-04-20T09:41:43;101968.13;;;8.03;100.00
24788;BME280;12883;52.662;5.196;2023-04-20T09:44:09;102158.16;;;9.43;100.00
24788;BME280;12883;52.662;5.196;2023-04-20T09:46:37;102114.28;;;9.07;100.00
24788;BME280;12883;52.662;5.196;2023-04-20T09:49:04;102147.44;;;9.52;100.00
24788;BME280;12883;52.662;5.196;2023-04-20T09:51:32;102185.31;;;9.45;100.00
24788;BME280;12883;52.662;5.196;2023-04-20T09:53:59;102136.91;;;9.27;100.00
24788;BME280;12883;52.662;5.196;2023-04-20T09:56:26;102098.09;;;9.10;100.00
24788;BME280;12883;52.662;5.196;2023-04-20T09:58:53;101993.34;;;8.41;100.00
24788;BME280;12883;52.662;5.196;2023-04-20T10:01:19;102141.31;;;9.52;100.00
24788;BME280;12883;52.662;5.196;2023-04-20T10:03:45;102158.00;;;9.11;100.00
24788;BME280;12883;52.662;5.196;2023-04-20T10:06:32;102141.41;;;9.68;100.00
24788;BME280;12883;52.662;5.196;2023-04-20T10:09:00;102164.88;;;9.63;100.00
24788;BME280;12883;52.662;5.196;2023-04-20T10:11:36;102088.97;;;9.46;100.00
24788;BME280;12883;52.662;5.196;2023-04-20T10:14:24;102134.78;;;9.88;100.00
24788;BME280;12883;52.662;5.196;2023-04-20T10:19:44;102140.94;;;9.96;100.00
24788;BME280;12883;52.662;5.196;2023-04-20T10:22:23;102068.44;;;9.40;100.00
24788;BME280;12883;52.662;5.196;2023-04-20T10:24:49;102000.28;;;9.09;100.00
24788;BME280;12883;52.662;5.196;2023-04-20T10:27:16;102039.31;;;9.48;100.00
24788;BME280;12883;52.662;5.196;2023-04-20T10:29:41;102154.38;;;9.95;100.00
24788;BME280;12883;52.662;5.196;2023-04-20T10:32:07;102153.81;;;10.17;100.00
24788;BME280;12883;52.662;5.196;2023-04-20T10:34:34;102033.31;;;9.46;100.00
24788;BME280;12883;52.662;5.196;2023-04-20T10:37:09;102118.88;;;9.88;100.00
24788;BME280;12883;52.662;5.196;2023-04-20T10:39:43;102111.75;;;9.80;100.00
24788;BME280;12883;52.662;5.196;2023-04-20T10:42:08;102089.06;;;9.94;100.00
24788;BME280;12883;52.662;5.196;2023-04-20T10:44:34;102062.91;;;9.91;100.00
24788;BME280;12883;52.662;5.196;2023-04-20T10:47:00;102039.50;;;9.70;100.00
24788;BME280;12883;52.662;5.196;2023-04-20T10:49:26;101950.84;;;9.25;100.00
24788;BME280;12883;52.662;5.196;2023-04-20T10:51:53;102014.84;;;9.70;100.00
24788;BME280;12883;52.662;5.196;2023-04-20T10:54:19;101946.22;;;9.27;100.00
24788;BME280;12883;52.662;5.196;2023-04-20T10:56:49;101985.34;;;8.92;100.00
24788;BME280;12883;52.662;5.196;2023-04-20T10:59:23;102087.81;;;10.38;100.00
24788;BME280;12883;52.662;5.196;2023-04-20T11:01:50;102131.59;;;10.58;100.00
24788;BME280;12883;52.662;5.196;2023-04-20T11:04:16;102019.34;;;9.93;100.00
24788;BME280;12883;52.662;5.196;2023-04-20T11:06:43;102135.56;;;10.62;100.00
24788;BME280;12883;52.662;5.196;2023-04-20T11:09:23;102132.91;;;10.62;100.00
24788;BME280;12883;52.662;5.196;2023-04-20T11:12:01;102144.03;;;10.49;100.00
24788;BME280;12883;52.662;5.196;2023-04-20T11:14:27;102123.63;;;10.34;100.00
24788;BME280;12883;52.662;5.196;2023-04-20T11:16:54;102149.69;;;10.54;100.00
24788;BME280;12883;52.662;5.196;2023-04-20T11:19:28;102137.38;;;10.53;100.00
24788;BME280;12883;52.662;5.196;2023-04-20T11:21:53;102117.00;;;10.62;100.00
24788;BME280;12883;52.662;5.196;2023-04-20T11:24:26;102123.63;;;10.74;100.00
24788;BME280;12883;52.662;5.196;2023-04-20T11:26:52;102136.25;;;10.72;100.00
24788;BME280;12883;52.662;5.196;2023-04-20T11:31:53;102013.22;;;10.09;100.00
24788;BME280;12883;52.662;5.196;2023-04-20T11:34:18;101987.69;;;10.08;100.00
24788;BME280;12883;52.662;5.196;2023-04-20T11:36:44;102038.69;;;10.50;100.00
24788;BME280;12883;52.662;5.196;2023-04-20T11:39:29;102103.34;;;10.89;100.00
24788;BME280;12883;52.662;5.196;2023-04-20T11:41:55;101996.44;;;10.32;100.00
24788;BME280;12883;52.662;5.196;2023-04-20T11:44:23;102071.13;;;10.92;100.00
24788;BME280;12883;52.662;5.196;2023-04-20T11:46:50;101950.84;;;10.29;100.00
24788;BME280;12883;52.662;5.196;2023-04-20T11:49:18;102081.56;;;11.40;100.00
24788;BME280;12883;52.662;5.196;2023-04-20T11:51:43;102014.72;;;10.90;100.00
24788;BME280;12883;52.662;5.196;2023-04-20T11:54:09;102100.13;;;11.17;100.00
24788;BME280;12883;52.662;5.196;2023-04-20T11:56:35;101887.56;;;10.18;100.00
24788;BME280;12883;52.662;5.196;2023-04-20T11:59:02;102102.56;;;11.27;100.00
24788;BME280;12883;52.662;5.196;2023-04-20T12:01:28;102086.41;;;11.36;100.00
24788;BME280;12883;52.662;5.196;2023-04-20T12:03:53;101908.09;;;10.16;100.00
24788;BME280;12883;52.662;5.196;2023-04-20T12:06:20;101894.94;;;10.38;100.00
24788;BME280;12883;52.662;5.196;2023-04-20T12:08:45;102060.94;;;11.11;100.00
24788;BME280;12883;52.662;5.196;2023-04-20T12:11:12;102066.88;;;11.60;100.00
24788;BME280;12883;52.662;5.196;2023-04-20T12:13:38;101680.13;;;8.91;100.00
24788;BME280;12883;52.662;5.196;2023-04-20T12:16:03;101896.38;;;10.57;100.00
24788;BME280;12883;52.662;5.196;2023-04-20T12:18:29;102106.38;;;11.71;100.00
24788;BME280;12883;52.662;5.196;2023-04-20T12:20:54;102071.50;;;11.66;100.00
24788;BME280;12883;52.662;5.196;2023-04-20T12:23:20;101985.19;;;11.23;100.00
24788;BME280;12883;52.662;5.196;2023-04-20T12:25:45;102010.41;;;11.58;100.00
24788;BME280;12883;52.662;5.196;2023-04-20T12:28:11;102016.31;;;11.68;100.00
24788;BME280;12883;52.662;5.196;2023-04-20T12:30:36;101690.72;;;10.00;100.00
24788;BME280;12883;52.662;5.196;2023-04-20T12:33:02;102047.03;;;12.15;100.00
24788;BME280;12883;52.662;5.196;2023-04-20T12:35:28;101990.72;;;11.67;100.00
24788;BME280;12883;52.662;5.196;2023-04-20T12:37:54;101908.16;;;11.15;100.00
24788;BME280;12883;52.662;5.196;2023-04-20T12:40:20;101997.13;;;11.58;100.00
24788;BME280;12883;52.662;5.196;2023-04-20T12:42:45;101845.25;;;10.63;100.00
24788;BME280;12883;52.662;5.196;2023-04-20T12:45:11;102047.28;;;11.83;100.00
24788;BME280;12883;52.662;5.196;2023-04-20T12:47:37;102038.13;;;11.86;100.00